createdAt,value
2019-03-19T00:00:30.553Z,2.23
2019-03-19T00:02:59.713Z,2.17
2019-03-19T00:05:28.768Z,1.97
2019-03-19T00:07:57.850Z,1.87
2019-03-19T00:10:26.908Z,2.10
2019-03-19T00:12:55.986Z,2.20
2019-03-19T00:15:25.045Z,2.40
2019-03-19T00:17:54.123Z,2.53
2019-03-19T00:20:23.114Z,3.00
2019-03-19T00:22:52.204Z,3.00
2019-03-19T00:25:29.494Z,2.50
2019-03-19T00:27:52.082Z,2.90
2019-03-19T00:30:21.150Z,2.30
2019-03-19T00:32:50.230Z,2.50
2019-03-19T00:35:19.286Z,2.50
2019-03-19T00:37:48.369Z,2.13
2019-03-19T00:40:17.635Z,2.30
2019-03-19T00:42:46.631Z,2.10
2019-03-19T00:45:15.693Z,2.60
2019-03-19T00:47:44.811Z,2.20
2019-03-19T00:50:13.901Z,2.37
2019-03-19T00:52:42.982Z,2.00
2019-03-19T00:55:12.209Z,2.50
2019-03-19T00:57:41.289Z,2.20
2019-03-19T01:00:10.671Z,2.60
2019-03-19T01:02:39.746Z,1.90
2019-03-19T01:05:09.152Z,2.53
2019-03-19T01:07:38.226Z,2.37
2019-03-19T01:10:07.564Z,2.27
2019-03-19T01:12:36.630Z,2.40
2019-03-19T01:15:06.906Z,2.17
2019-03-19T01:17:35.966Z,2.20
2019-03-19T01:20:05.599Z,1.87
2019-03-19T01:22:35.124Z,1.90
2019-03-19T01:25:04.724Z,1.90
2019-03-19T01:27:33.893Z,2.20
2019-03-19T01:30:02.935Z,2.47
2019-03-19T01:32:32.009Z,2.20
2019-03-19T01:35:01.071Z,2.40
2019-03-19T01:37:30.089Z,2.30
2019-03-19T01:39:59.072Z,2.90
2019-03-19T01:42:28.075Z,2.67
2019-03-19T01:44:57.050Z,2.47
2019-03-19T01:47:26.142Z,1.87
2019-03-19T01:49:55.142Z,2.17
2019-03-19T01:52:24.162Z,2.50
2019-03-19T01:54:53.066Z,2.40
2019-03-19T01:57:22.077Z,2.87
2019-03-19T01:59:51.123Z,2.40
2019-03-19T02:02:20.215Z,2.40
2019-03-19T02:04:49.276Z,2.30
2019-03-19T02:07:18.365Z,2.00
2019-03-19T02:09:47.358Z,2.30
2019-03-19T02:12:16.442Z,2.30
2019-03-19T02:14:45.492Z,2.10
2019-03-19T02:17:14.574Z,2.63
2019-03-19T02:19:43.633Z,2.07
2019-03-19T02:22:12.632Z,2.10
2019-03-19T02:24:41.684Z,2.67
2019-03-19T02:27:10.761Z,2.10
2019-03-19T02:29:39.749Z,2.77
2019-03-19T02:32:08.750Z,2.77
2019-03-19T02:34:37.809Z,2.23
2019-03-19T02:37:06.880Z,2.63
2019-03-19T02:39:35.924Z,2.53
2019-03-19T02:42:05.018Z,2.30
2019-03-19T02:44:34.008Z,2.57
2019-03-19T02:47:03.084Z,2.00
2019-03-19T02:49:32.170Z,1.90
2019-03-19T02:52:01.285Z,2.20
2019-03-19T02:54:30.306Z,2.20
2019-03-19T02:56:59.389Z,3.13
2019-03-19T02:59:28.453Z,2.53
2019-03-19T03:01:57.529Z,2.43
2019-03-19T03:04:26.616Z,2.13
2019-03-19T03:06:57.120Z,2.03
2019-03-19T03:09:26.178Z,2.00
2019-03-19T03:11:55.260Z,2.57
2019-03-19T03:14:24.335Z,2.50
2019-03-19T03:16:53.388Z,2.80
2019-03-19T03:19:22.460Z,2.23
2019-03-19T03:21:51.526Z,2.23
2019-03-19T03:24:20.600Z,2.30
2019-03-19T03:26:49.659Z,2.37
2019-03-19T03:29:18.960Z,2.00
2019-03-19T03:31:48.027Z,3.03
2019-03-19T03:34:17.040Z,2.30
2019-03-19T03:36:46.093Z,3.03
2019-03-19T03:39:15.172Z,2.40
2019-03-19T03:41:44.236Z,1.83
2019-03-19T03:44:13.311Z,2.40
2019-03-19T03:46:42.292Z,2.60
2019-03-19T03:49:11.317Z,2.70
2019-03-19T03:51:40.311Z,2.87
2019-03-19T03:54:09.402Z,2.97
2019-03-19T03:56:38.461Z,1.90
2019-03-19T03:59:07.546Z,3.33
2019-03-19T04:01:36.603Z,3.43
2019-03-19T04:04:05.791Z,2.10
2019-03-19T04:06:34.847Z,2.00
2019-03-19T04:09:08.843Z,1.67
2019-03-19T04:11:36.089Z,3.40
2019-03-19T04:14:05.176Z,3.00
2019-03-19T04:16:34.310Z,2.70
2019-03-19T04:19:03.398Z,2.90
2019-03-19T04:21:32.461Z,2.93
2019-03-19T04:24:01.543Z,2.47
2019-03-19T04:26:30.587Z,1.73
2019-03-19T04:28:59.666Z,3.60
2019-03-19T04:31:28.745Z,2.37
2019-03-19T04:33:57.826Z,4.27
2019-03-19T04:36:26.898Z,2.93
2019-03-19T04:38:55.903Z,3.33
2019-03-19T04:41:24.957Z,3.40
2019-03-19T04:43:54.046Z,3.80
2019-03-19T04:46:23.108Z,2.90
2019-03-19T04:48:52.062Z,3.53
2019-03-19T04:51:21.138Z,4.73
2019-03-19T04:53:50.151Z,3.60
2019-03-19T04:56:19.208Z,3.00
2019-03-19T04:58:48.266Z,3.20
2019-03-19T05:01:17.356Z,4.33
2019-03-19T05:03:46.419Z,4.77
2019-03-19T05:06:15.432Z,4.63
2019-03-19T05:08:44.423Z,4.60
2019-03-19T05:11:13.510Z,4.40
2019-03-19T05:13:42.495Z,3.77
2019-03-19T05:16:11.503Z,3.47
2019-03-19T05:18:40.564Z,3.57
2019-03-19T05:21:09.651Z,4.80
2019-03-19T05:23:38.627Z,4.17
2019-03-19T05:26:07.722Z,4.60
2019-03-19T05:28:36.794Z,4.13
2019-03-19T05:31:05.869Z,3.93
2019-03-19T05:33:34.863Z,3.80
2019-03-19T05:36:03.941Z,3.77
2019-03-19T05:38:32.928Z,3.30
2019-03-19T05:41:02.014Z,3.70
2019-03-19T05:43:31.068Z,4.77
2019-03-19T05:46:00.167Z,4.40
2019-03-19T05:48:29.177Z,2.90
2019-03-19T05:50:58.259Z,3.53
2019-03-19T05:53:27.241Z,2.67
2019-03-19T05:55:56.326Z,2.57
2019-03-19T05:58:25.316Z,3.27
2019-03-19T06:00:54.402Z,2.97
2019-03-19T06:03:23.450Z,3.00
2019-03-19T06:05:52.529Z,2.73
2019-03-19T06:08:21.594Z,3.60
2019-03-19T06:10:50.671Z,2.60
2019-03-19T06:13:19.722Z,2.57
2019-03-19T06:15:48.801Z,3.00
2019-03-19T06:18:17.793Z,2.67
2019-03-19T06:20:46.879Z,2.77
2019-03-19T06:23:15.943Z,3.50
2019-03-19T06:25:44.952Z,4.13
2019-03-19T06:28:13.942Z,3.70
2019-03-19T06:30:42.963Z,3.40
2019-03-19T06:33:11.949Z,4.00
2019-03-19T06:35:41.034Z,3.90
2019-03-19T06:38:10.095Z,4.00
2019-03-19T06:40:39.172Z,2.90
2019-03-19T06:43:08.154Z,3.50
2019-03-19T06:45:37.236Z,2.63
2019-03-19T06:48:06.324Z,3.80
2019-03-19T06:50:44.793Z,2.60
2019-03-19T06:53:06.220Z,3.00
2019-03-19T06:55:35.308Z,3.50
2019-03-19T06:58:10.938Z,3.17
2019-03-19T07:00:35.225Z,3.43
2019-03-19T07:03:04.397Z,4.17
2019-03-19T07:05:33.470Z,3.50
2019-03-19T07:08:02.529Z,3.60
2019-03-19T07:10:31.609Z,4.00
2019-03-19T07:13:00.660Z,4.50
2019-03-19T07:15:29.753Z,4.30
2019-03-19T07:17:58.743Z,3.77
2019-03-19T07:20:27.839Z,3.77
2019-03-19T07:22:56.889Z,4.43
2019-03-19T07:25:25.978Z,4.53
2019-03-19T07:27:55.113Z,4.23
2019-03-19T07:30:24.292Z,4.90
2019-03-19T07:32:53.352Z,4.90
2019-03-19T07:35:22.361Z,4.37
2019-03-19T07:37:51.412Z,4.60
2019-03-19T07:40:20.502Z,4.87
2019-03-19T07:42:49.556Z,5.10
2019-03-19T07:45:18.741Z,4.03
2019-03-19T07:47:47.800Z,4.97
2019-03-19T07:50:16.955Z,3.77
2019-03-19T07:52:46.018Z,5.53
2019-03-19T07:55:15.113Z,4.70
2019-03-19T07:57:44.179Z,5.53
2019-03-19T08:00:14.704Z,4.40
2019-03-19T08:02:43.769Z,5.10
2019-03-19T08:05:12.811Z,3.80
2019-03-19T08:07:41.885Z,3.93
2019-03-19T08:10:10.973Z,5.20
2019-03-19T08:12:40.153Z,4.07
2019-03-19T08:15:10.794Z,4.00
2019-03-19T08:17:39.930Z,4.80
2019-03-19T08:20:10.895Z,3.70
2019-03-19T08:22:39.977Z,5.10
2019-03-19T08:25:10.033Z,3.67
2019-03-19T08:27:39.042Z,3.97
2019-03-19T08:30:10.493Z,4.50
2019-03-19T08:32:39.572Z,4.60
2019-03-19T08:35:08.736Z,3.60
2019-03-19T08:37:37.820Z,3.13
2019-03-19T08:40:07.906Z,3.53
2019-03-19T08:42:36.986Z,3.47
2019-03-19T08:45:06.904Z,3.60
2019-03-19T08:47:35.835Z,3.80
2019-03-19T08:50:05.590Z,3.00
2019-03-19T08:52:34.603Z,3.10
2019-03-19T08:55:03.703Z,2.63
2019-03-19T08:57:32.784Z,2.90
2019-03-19T09:00:01.783Z,2.83
2019-03-19T09:02:30.787Z,3.47
2019-03-19T09:04:59.779Z,3.90
2019-03-19T09:07:28.857Z,2.90
2019-03-19T09:09:57.926Z,3.43
2019-03-19T09:12:26.930Z,3.03
2019-03-19T09:14:55.910Z,3.20
2019-03-19T09:17:24.923Z,3.13
2019-03-19T09:19:53.987Z,2.70
2019-03-19T09:22:23.073Z,2.80
2019-03-19T09:24:52.089Z,2.20
2019-03-19T09:27:21.167Z,2.60
2019-03-19T09:29:50.227Z,2.60
2019-03-19T09:32:19.328Z,2.87
2019-03-19T09:34:48.383Z,1.90
2019-03-19T09:37:17.473Z,1.80
2019-03-19T09:39:46.529Z,2.57
2019-03-19T09:42:15.606Z,2.00
2019-03-19T09:44:44.658Z,1.40
2019-03-19T09:47:13.750Z,1.83
2019-03-19T09:49:42.832Z,2.27
2019-03-19T09:52:11.926Z,1.63
2019-03-19T09:54:40.987Z,1.90
2019-03-19T09:57:10.066Z,1.97
2019-03-19T09:59:39.151Z,2.40
2019-03-19T10:02:08.230Z,2.90
2019-03-19T10:04:37.301Z,1.77
2019-03-19T10:07:06.676Z,2.47
2019-03-19T10:09:35.840Z,2.03
2019-03-19T10:12:04.950Z,2.13
2019-03-19T10:14:34.001Z,2.63
2019-03-19T10:17:03.084Z,2.50
2019-03-19T10:19:32.138Z,2.83
2019-03-19T10:22:01.274Z,2.43
2019-03-19T10:24:30.322Z,1.80
2019-03-19T10:26:59.327Z,2.57
2019-03-19T10:29:37.854Z,2.10
2019-03-19T10:31:59.195Z,1.87
2019-03-19T10:34:28.188Z,2.17
2019-03-19T10:36:57.304Z,2.80
2019-03-19T10:39:26.281Z,1.63
2019-03-19T10:41:55.368Z,1.70
2019-03-19T10:44:24.439Z,2.00
2019-03-19T10:46:53.443Z,2.10
2019-03-19T10:49:22.524Z,1.97
2019-03-19T10:51:51.606Z,1.57
2019-03-19T10:54:20.680Z,1.60
2019-03-19T10:56:49.767Z,1.77
2019-03-19T10:59:18.772Z,2.17
2019-03-19T11:01:47.849Z,1.70
2019-03-19T11:04:16.909Z,1.60
2019-03-19T11:06:46.003Z,1.63
2019-03-19T11:09:15.077Z,1.67
2019-03-19T11:11:44.215Z,1.50
2019-03-19T11:14:13.273Z,1.67
2019-03-19T11:16:42.344Z,1.57
2019-03-19T11:19:11.434Z,1.23
2019-03-19T11:21:40.492Z,1.83
2019-03-19T11:24:09.570Z,1.60
2019-03-19T11:26:38.553Z,1.60
2019-03-19T11:29:07.561Z,2.40
2019-03-19T11:31:36.629Z,1.30
2019-03-19T11:34:05.738Z,1.50
2019-03-19T11:36:34.803Z,1.40
2019-03-19T11:39:05.520Z,2.00
2019-03-19T11:41:34.513Z,1.83
2019-03-19T11:44:03.597Z,1.90
2019-03-19T11:46:32.673Z,1.97
2019-03-19T11:49:01.779Z,1.87
2019-03-19T11:51:30.842Z,2.00
2019-03-19T11:53:59.857Z,1.87
2019-03-19T11:56:28.915Z,2.27
2019-03-19T11:58:57.995Z,1.80
2019-03-19T12:01:27.062Z,1.67
2019-03-19T12:03:56.138Z,2.00
2019-03-19T12:06:25.191Z,2.10
2019-03-19T12:08:54.272Z,1.50
2019-03-19T12:11:23.346Z,1.77
2019-03-19T12:13:52.437Z,1.60
2019-03-19T12:16:21.438Z,1.20
2019-03-19T12:18:50.559Z,1.60
2019-03-19T12:21:19.604Z,1.50
2019-03-19T12:23:48.688Z,1.80
2019-03-19T12:26:17.754Z,1.67
2019-03-19T12:28:47.023Z,1.40
2019-03-19T12:31:16.068Z,1.60
2019-03-19T12:33:45.157Z,1.73
2019-03-19T12:36:14.155Z,1.70
2019-03-19T12:38:43.246Z,1.77
2019-03-19T12:41:12.296Z,1.97
2019-03-19T12:43:41.387Z,1.40
2019-03-19T12:46:10.459Z,1.10
2019-03-19T12:48:39.551Z,1.53
2019-03-19T12:51:08.541Z,1.40
2019-03-19T12:53:37.617Z,1.57
2019-03-19T12:56:06.677Z,1.30
2019-03-19T12:58:35.681Z,1.30
2019-03-19T13:01:04.898Z,1.03
2019-03-19T13:03:34.030Z,1.40
2019-03-19T13:06:03.027Z,1.77
2019-03-19T13:08:32.116Z,1.20
2019-03-19T13:11:01.128Z,1.37
2019-03-19T13:13:30.218Z,1.47
2019-03-19T13:15:59.282Z,1.30
2019-03-19T13:18:28.298Z,1.10
2019-03-19T13:20:57.366Z,1.10
2019-03-19T13:23:26.461Z,0.80
2019-03-19T13:25:56.821Z,0.90
2019-03-19T13:28:26.006Z,1.00
2019-03-19T13:30:55.012Z,1.30
2019-03-19T13:33:24.101Z,1.13
2019-03-19T13:35:53.162Z,1.43
2019-03-19T13:38:22.252Z,1.53
2019-03-19T13:40:51.328Z,1.53
2019-03-19T13:43:20.351Z,1.00
2019-03-19T13:45:49.417Z,1.00
2019-03-19T13:48:18.513Z,0.80
2019-03-19T13:50:47.595Z,1.20
2019-03-19T13:53:16.678Z,1.23
2019-03-19T13:55:45.749Z,0.90
2019-03-19T13:58:14.843Z,1.60
2019-03-19T14:00:43.920Z,1.47
2019-03-19T14:03:12.998Z,1.80
2019-03-19T14:05:42.056Z,1.80
2019-03-19T14:08:11.128Z,1.73
2019-03-19T14:10:40.213Z,1.40
2019-03-19T14:13:09.304Z,1.50
2019-03-19T14:15:38.352Z,1.57
2019-03-19T14:18:07.419Z,1.93
2019-03-19T14:20:36.510Z,1.60
2019-03-19T14:23:05.673Z,1.60
2019-03-19T14:25:34.690Z,1.30
2019-03-19T14:28:03.759Z,1.60
2019-03-19T14:30:32.763Z,1.37
2019-03-19T14:33:01.821Z,1.73
2019-03-19T14:35:37.267Z,1.63
2019-03-19T14:38:01.671Z,1.30
2019-03-19T14:40:30.860Z,1.50
2019-03-19T14:43:01.425Z,1.37
2019-03-19T14:45:30.706Z,1.73
2019-03-19T14:47:59.776Z,1.50
2019-03-19T14:50:28.895Z,1.50
2019-03-19T14:52:57.947Z,1.63
2019-03-19T14:55:27.034Z,1.57
2019-03-19T14:57:56.093Z,2.07
2019-03-19T15:00:25.180Z,1.53
2019-03-19T15:02:54.257Z,1.50
2019-03-19T15:05:23.339Z,1.47
2019-03-19T15:07:52.411Z,1.73
2019-03-19T15:10:21.491Z,1.40
2019-03-19T15:12:50.551Z,1.50
2019-03-19T15:15:19.648Z,1.27
2019-03-19T15:17:48.716Z,1.60
2019-03-19T15:20:18.365Z,1.30
2019-03-19T15:22:47.422Z,1.50
2019-03-19T15:25:16.505Z,1.17
2019-03-19T15:27:45.567Z,1.50
2019-03-19T15:30:14.840Z,1.60
2019-03-19T15:32:43.923Z,1.50
2019-03-19T15:35:13.006Z,1.60
2019-03-19T15:37:42.053Z,1.60
2019-03-19T15:40:12.456Z,1.07
2019-03-19T15:42:41.512Z,1.50
2019-03-19T15:45:11.459Z,1.50
2019-03-19T15:47:40.513Z,1.60
2019-03-19T15:50:12.006Z,1.07
2019-03-19T15:52:41.061Z,1.20
2019-03-19T15:55:11.063Z,1.10
2019-03-19T15:57:40.099Z,1.10
2019-03-19T16:00:12.500Z,1.20
2019-03-19T16:02:41.555Z,2.20
2019-03-19T16:05:11.101Z,1.40
2019-03-19T16:07:40.180Z,1.77
2019-03-19T16:10:09.590Z,1.07
2019-03-19T16:12:38.657Z,1.10
2019-03-19T16:15:08.803Z,1.33
2019-03-19T16:17:37.870Z,1.13
2019-03-19T16:20:08.630Z,1.30
2019-03-19T16:22:37.689Z,1.50
2019-03-19T16:25:06.921Z,1.40
2019-03-19T16:27:35.911Z,1.17
2019-03-19T16:30:05.642Z,1.13
2019-03-19T16:32:34.716Z,1.37
2019-03-19T16:35:03.903Z,1.30
2019-03-19T16:37:58.533Z,1.30
2019-03-19T16:40:27.611Z,1.10
2019-03-19T16:42:56.672Z,1.17
2019-03-19T16:45:25.756Z,1.07
2019-03-19T16:47:54.812Z,1.20
2019-03-19T16:50:23.941Z,1.00
2019-03-19T16:52:53.010Z,1.30
2019-03-19T16:55:22.094Z,1.17
2019-03-19T16:57:51.155Z,1.20
2019-03-19T17:00:20.256Z,1.30
2019-03-19T17:02:49.249Z,1.30
2019-03-19T17:05:18.380Z,1.00
2019-03-19T17:07:47.433Z,0.87
2019-03-19T17:10:16.949Z,0.67
2019-03-19T17:12:46.009Z,0.80
2019-03-19T17:15:15.495Z,0.80
2019-03-19T17:17:44.594Z,0.90
2019-03-19T17:20:13.739Z,0.80
2019-03-19T17:22:42.802Z,0.77
2019-03-19T17:25:13.475Z,0.73
2019-03-19T17:27:42.632Z,0.60
2019-03-19T17:30:17.615Z,0.90
2019-03-19T17:32:46.687Z,0.70
2019-03-19T17:35:15.780Z,0.80
2019-03-19T17:38:02.580Z,0.70
2019-03-19T17:40:40.983Z,0.80
2019-03-19T17:43:02.442Z,0.80
2019-03-19T17:45:31.536Z,0.90
2019-03-19T17:48:00.657Z,0.80
2019-03-19T17:50:29.651Z,0.70
2019-03-19T17:52:58.647Z,0.70
2019-03-19T17:55:27.657Z,0.73
2019-03-19T17:57:56.724Z,0.70
2019-03-19T18:00:26.846Z,0.60
2019-03-19T18:02:55.908Z,0.70
2019-03-19T18:05:24.999Z,0.80
2019-03-19T18:07:54.063Z,0.90
2019-03-19T18:10:23.147Z,0.90
2019-03-19T18:12:52.208Z,1.10
2019-03-19T18:15:21.299Z,0.83
2019-03-19T18:17:50.355Z,0.90
2019-03-19T18:20:19.444Z,1.00
2019-03-19T18:22:48.510Z,0.90
2019-03-19T18:25:17.601Z,0.93
2019-03-19T18:27:46.677Z,0.80
2019-03-19T18:30:16.271Z,0.80
2019-03-19T18:32:45.370Z,0.83
2019-03-19T18:35:14.427Z,1.03
2019-03-19T18:37:43.515Z,0.80
2019-03-19T18:40:12.585Z,0.93
2019-03-19T18:42:41.692Z,0.83
2019-03-19T18:45:11.177Z,0.77
2019-03-19T18:47:40.255Z,0.93
2019-03-19T18:50:11.385Z,1.77
2019-03-19T18:52:40.469Z,1.10
2019-03-19T18:55:09.684Z,1.13
2019-03-19T18:57:41.334Z,0.93
2019-03-19T19:00:12.056Z,1.17
2019-03-19T19:02:49.787Z,1.03
2019-03-19T19:05:12.409Z,0.90
2019-03-19T19:07:41.498Z,0.97
2019-03-19T19:10:11.251Z,1.20
2019-03-19T19:12:40.349Z,0.90
2019-03-19T19:15:11.346Z,1.00
2019-03-19T19:17:40.428Z,0.80
2019-03-19T19:20:10.364Z,0.90
2019-03-19T19:22:39.452Z,0.90
2019-03-19T19:25:10.289Z,1.00
2019-03-19T19:27:39.383Z,0.97
2019-03-19T19:30:11.244Z,0.90
2019-03-19T19:32:40.337Z,0.90
2019-03-19T19:35:09.393Z,0.80
2019-03-19T19:37:38.506Z,1.00
2019-03-19T19:40:09.166Z,1.70
2019-03-19T19:42:38.241Z,1.93
2019-03-19T19:45:07.589Z,1.60
2019-03-19T19:47:36.670Z,1.40
2019-03-19T19:50:07.693Z,1.40
2019-03-19T19:52:36.778Z,1.30
2019-03-19T19:55:06.081Z,1.30
2019-03-19T19:57:35.218Z,1.20
2019-03-19T20:00:05.050Z,1.10
2019-03-19T20:02:34.135Z,1.40
2019-03-19T20:05:03.766Z,1.00
2019-03-19T20:07:32.967Z,0.90
2019-03-19T20:10:02.011Z,1.20
2019-03-19T20:12:31.013Z,1.00
2019-03-19T20:15:00.011Z,0.90
2019-03-19T20:17:29.150Z,1.27
2019-03-19T20:19:58.195Z,1.20
2019-03-19T20:22:27.276Z,0.90
2019-03-19T20:24:56.338Z,1.00
2019-03-19T20:27:25.411Z,1.00
2019-03-19T20:29:54.464Z,1.07
2019-03-19T20:32:23.540Z,0.90
2019-03-19T20:34:52.600Z,1.10
2019-03-19T20:37:21.616Z,1.10
2019-03-19T20:39:50.683Z,1.00
2019-03-19T20:42:19.770Z,0.80
2019-03-19T20:44:48.831Z,1.00
2019-03-19T20:47:17.905Z,1.10
2019-03-19T20:49:48.016Z,1.10
2019-03-19T20:52:17.288Z,0.97
2019-03-19T20:54:46.353Z,1.00
2019-03-19T20:57:15.426Z,0.97
2019-03-19T20:59:44.496Z,1.00
2019-03-19T21:02:13.566Z,0.90
2019-03-19T21:04:42.654Z,1.00
2019-03-19T21:07:11.618Z,0.90
2019-03-19T21:09:40.695Z,0.90
2019-03-19T21:12:09.744Z,0.97
2019-03-19T21:14:38.815Z,1.10
2019-03-19T21:17:07.885Z,0.90
2019-03-19T21:19:37.014Z,0.97
2019-03-19T21:22:06.019Z,1.00
2019-03-19T21:24:35.095Z,0.83
2019-03-19T21:27:04.165Z,1.17
2019-03-19T21:29:33.252Z,0.93
2019-03-19T21:32:02.306Z,0.90
2019-03-19T21:34:31.386Z,0.90
2019-03-19T21:37:00.443Z,0.90
2019-03-19T21:39:29.534Z,1.00
2019-03-19T21:41:58.587Z,1.10
2019-03-19T21:44:27.604Z,1.10
2019-03-19T21:46:56.673Z,1.50
2019-03-19T21:49:25.772Z,1.40
2019-03-19T21:51:54.841Z,1.50
2019-03-19T21:54:23.850Z,1.10
2019-03-19T21:56:52.903Z,1.27
2019-03-19T21:59:21.984Z,1.10
2019-03-19T22:01:51.039Z,1.10
2019-03-19T22:04:20.117Z,1.23
2019-03-19T22:06:49.088Z,1.10
2019-03-19T22:09:18.173Z,1.10
2019-03-19T22:11:47.232Z,1.00
2019-03-19T22:14:16.242Z,1.03
2019-03-19T22:16:45.293Z,1.00
2019-03-19T22:19:14.379Z,0.90
2019-03-19T22:21:43.447Z,1.03
2019-03-19T22:24:12.537Z,0.90
2019-03-19T22:26:41.598Z,0.90
2019-03-19T22:29:12.623Z,1.03
2019-03-19T22:31:41.460Z,1.30
2019-03-19T22:34:14.305Z,1.20
2019-03-19T22:36:41.325Z,1.30
2019-03-19T22:39:10.412Z,1.30
2019-03-19T22:41:39.473Z,1.00
2019-03-19T22:44:08.538Z,1.20
2019-03-19T22:46:37.604Z,1.73
2019-03-19T22:49:06.720Z,1.73
2019-03-19T22:51:35.697Z,1.40
2019-03-19T22:54:04.886Z,1.47
2019-03-19T22:56:34.126Z,1.30
2019-03-19T22:59:03.213Z,1.30
2019-03-19T23:01:32.280Z,1.40
2019-03-19T23:04:01.351Z,1.13
2019-03-19T23:06:30.419Z,1.27
2019-03-19T23:08:59.492Z,1.20
2019-03-19T23:11:28.559Z,1.30
2019-03-19T23:13:57.633Z,2.23
2019-03-19T23:16:26.678Z,1.77
2019-03-19T23:18:55.767Z,2.17
2019-03-19T23:21:24.823Z,1.90
2019-03-19T23:23:53.900Z,2.20
2019-03-19T23:26:22.969Z,1.40
2019-03-19T23:28:52.028Z,1.73
2019-03-19T23:31:21.090Z,2.00
2019-03-19T23:33:50.171Z,1.80
2019-03-19T23:36:19.233Z,2.00
2019-03-19T23:38:48.244Z,1.60
2019-03-19T23:41:17.307Z,2.60
2019-03-19T23:43:46.316Z,2.73
2019-03-19T23:46:15.378Z,2.50
2019-03-19T23:48:44.408Z,2.40
2019-03-19T23:51:13.410Z,3.07
2019-03-19T23:53:42.411Z,2.57
2019-03-19T23:56:11.486Z,3.00
2019-03-19T23:58:40.552Z,2.53
